sensor_id;sensor_type;location;lat;lon;timestamp;pressure;altitude;pressure_sealevel;temperature;humidity
5812;BME280;2932;52.400;9.558;2022-11-20T00:01:38;100690.06;;;3.12;64.38
5812;BME280;2932;52.400;9.558;2022-11-20T00:04:04;100698.50;;;3.15;63.82
5812;BME280;2932;52.400;9.558;2022-11-20T00:06:29;100702.91;;;3.30;63.37
5812;BME280;2932;52.400;9.558;2022-11-20T00:08:56;100695.44;;;3.35;62.77
5812;BME280;2932;52.400;9.558;2022-11-20T00:11:23;100682.66;;;3.31;62.64
5812;BME280;2932;52.400;9.558;2022-11-20T00:13:51;100684.94;;;3.24;62.29
5812;BME280;2932;52.400;9.558;2022-11-20T00:16:19;100683.25;;;3.28;62.00
5812;BME280;2932;52.400;9.558;2022-11-20T00:18:45;100683.25;;;3.09;62.66
5812;BME280;2932;52.400;9.558;2022-11-20T00:21:13;100674.69;;;3.16;62.98
5812;BME280;2932;52.400;9.558;2022-11-20T00:23:38;100669.63;;;2.66;63.75
5812;BME280;2932;52.400;9.558;2022-11-20T00:26:05;100669.28;;;2.73;64.84
5812;BME280;2932;52.400;9.558;2022-11-20T00:28:31;100672.75;;;2.79;65.00
5812;BME280;2932;52.400;9.558;2022-11-20T00:31:09;100674.31;;;2.61;65.19
5812;BME280;2932;52.400;9.558;2022-11-20T00:33:34;100674.28;;;2.66;65.39
5812;BME280;2932;52.400;9.558;2022-11-20T00:36:05;100669.56;;;2.72;65.36
5812;BME280;2932;52.400;9.558;2022-11-20T00:38:31;100679.75;;;2.85;65.14
5812;BME280;2932;52.400;9.558;2022-11-20T00:40:58;100672.41;;;3.04;64.70
5812;BME280;2932;52.400;9.558;2022-11-20T00:43:24;100671.00;;;3.07;64.27
5812;BME280;2932;52.400;9.558;2022-11-20T00:45:49;100668.63;;;3.00;63.62
5812;BME280;2932;52.400;9.558;2022-11-20T00:48:15;100669.44;;;3.00;63.69
5812;BME280;2932;52.400;9.558;2022-11-20T00:50:41;100669.59;;;3.28;63.01
5812;BME280;2932;52.400;9.558;2022-11-20T00:53:06;100672.25;;;3.14;62.86
5812;BME280;2932;52.400;9.558;2022-11-20T00:55:31;100664.34;;;2.94;63.05
5812;BME280;2932;52.400;9.558;2022-11-20T00:57:57;100663.38;;;3.22;62.88
5812;BME280;2932;52.400;9.558;2022-11-20T01:00:22;100667.66;;;3.28;63.03
5812;BME280;2932;52.400;9.558;2022-11-20T01:02:47;100666.22;;;3.17;62.72
5812;BME280;2932;52.400;9.558;2022-11-20T01:05:12;100675.06;;;3.28;62.62
5812;BME280;2932;52.400;9.558;2022-11-20T01:07:38;100673.28;;;3.37;61.93
5812;BME280;2932;52.400;9.558;2022-11-20T01:10:03;100666.19;;;3.36;61.95
5812;BME280;2932;52.400;9.558;2022-11-20T01:12:29;100662.50;;;3.27;61.84
5812;BME280;2932;52.400;9.558;2022-11-20T01:14:54;100669.28;;;3.29;62.19
5812;BME280;2932;52.400;9.558;2022-11-20T01:17:19;100669.50;;;3.33;62.43
5812;BME280;2932;52.400;9.558;2022-11-20T01:19:48;100668.91;;;3.36;62.10
5812;BME280;2932;52.400;9.558;2022-11-20T01:22:14;100659.97;;;3.30;62.46
5812;BME280;2932;52.400;9.558;2022-11-20T01:24:39;100658.06;;;3.31;61.84
5812;BME280;2932;52.400;9.558;2022-11-20T01:27:05;100649.13;;;3.07;62.90
5812;BME280;2932;52.400;9.558;2022-11-20T01:29:30;100648.38;;;2.82;63.91
5812;BME280;2932;52.400;9.558;2022-11-20T01:31:55;100652.88;;;2.73;64.67
5812;BME280;2932;52.400;9.558;2022-11-20T01:34:21;100657.00;;;2.89;64.32
5812;BME280;2932;52.400;9.558;2022-11-20T01:36:47;100655.44;;;2.83;64.61
5812;BME280;2932;52.400;9.558;2022-11-20T01:39:24;100656.16;;;3.13;64.02
5812;BME280;2932;52.400;9.558;2022-11-20T01:41:51;100659.13;;;3.16;63.93
5812;BME280;2932;52.400;9.558;2022-11-20T01:47:21;100641.00;;;3.01;63.69
5812;BME280;2932;52.400;9.558;2022-11-20T01:49:54;100644.56;;;3.02;63.34
5812;BME280;2932;52.400;9.558;2022-11-20T01:52:25;100641.09;;;3.15;63.39
5812;BME280;2932;52.400;9.558;2022-11-20T01:55:07;100642.25;;;3.09;63.15
5812;BME280;2932;52.400;9.558;2022-11-20T01:57:33;100637.84;;;3.13;62.67
5812;BME280;2932;52.400;9.558;2022-11-20T02:00:07;100636.94;;;3.18;62.74
5812;BME280;2932;52.400;9.558;2022-11-20T02:02:33;100631.84;;;3.11;62.95
5812;BME280;2932;52.400;9.558;2022-11-20T02:05:04;100628.09;;;3.07;62.68
5812;BME280;2932;52.400;9.558;2022-11-20T02:07:34;100631.56;;;3.13;62.80
5812;BME280;2932;52.400;9.558;2022-11-20T02:10:00;100625.88;;;3.09;62.94
5812;BME280;2932;52.400;9.558;2022-11-20T02:12:25;100630.84;;;3.21;62.73
5812;BME280;2932;52.400;9.558;2022-11-20T02:15:09;100632.59;;;3.17;63.15
5812;BME280;2932;52.400;9.558;2022-11-20T02:17:35;100637.56;;;3.47;62.78
5812;BME280;2932;52.400;9.558;2022-11-20T02:20:00;100628.13;;;3.21;62.86
5812;BME280;2932;52.400;9.558;2022-11-20T02:22:33;100627.63;;;3.19;62.86
5812;BME280;2932;52.400;9.558;2022-11-20T02:25:04;100620.25;;;3.19;62.01
5812;BME280;2932;52.400;9.558;2022-11-20T02:27:32;100621.50;;;3.08;62.88
5812;BME280;2932;52.400;9.558;2022-11-20T02:30:00;100622.44;;;3.36;62.63
5812;BME280;2932;52.400;9.558;2022-11-20T02:32:27;100616.72;;;3.19;62.94
5812;BME280;2932;52.400;9.558;2022-11-20T02:34:54;100621.84;;;3.39;62.67
5812;BME280;2932;52.400;9.558;2022-11-20T02:37:20;100613.66;;;3.20;62.80
5812;BME280;2932;52.400;9.558;2022-11-20T02:39:47;100617.41;;;3.43;62.38
5812;BME280;2932;52.400;9.558;2022-11-20T02:42:14;100616.53;;;3.29;62.58
5812;BME280;2932;52.400;9.558;2022-11-20T02:44:40;100610.09;;;3.39;62.35
5812;BME280;2932;52.400;9.558;2022-11-20T02:47:05;100620.50;;;3.37;62.01
5812;BME280;2932;52.400;9.558;2022-11-20T02:49:30;100608.75;;;3.36;61.94
5812;BME280;2932;52.400;9.558;2022-11-20T02:51:56;100605.66;;;3.24;62.33
5812;BME280;2932;52.400;9.558;2022-11-20T02:54:21;100609.63;;;3.18;62.48
5812;BME280;2932;52.400;9.558;2022-11-20T02:56:46;100616.75;;;3.32;62.59
5812;BME280;2932;52.400;9.558;2022-11-20T02:59:12;100617.56;;;3.33;62.41
5812;BME280;2932;52.400;9.558;2022-11-20T03:01:37;100609.50;;;3.42;62.19
5812;BME280;2932;52.400;9.558;2022-11-20T03:04:02;100613.34;;;3.41;62.27
5812;BME280;2932;52.400;9.558;2022-11-20T03:06:28;100609.78;;;3.40;62.35
5812;BME280;2932;52.400;9.558;2022-11-20T03:08:53;100602.63;;;3.44;62.28
5812;BME280;2932;52.400;9.558;2022-11-20T03:11:18;100602.25;;;3.32;61.95
5812;BME280;2932;52.400;9.558;2022-11-20T03:13:44;100595.53;;;3.24;62.50
5812;BME280;2932;52.400;9.558;2022-11-20T03:16:15;100586.13;;;2.98;62.44
5812;BME280;2932;52.400;9.558;2022-11-20T03:18:41;100587.75;;;3.18;62.79
5812;BME280;2932;52.400;9.558;2022-11-20T03:21:08;100591.25;;;3.37;62.39
5812;BME280;2932;52.400;9.558;2022-11-20T03:23:34;100579.94;;;3.25;62.40
5812;BME280;2932;52.400;9.558;2022-11-20T03:28:40;100577.22;;;3.25;62.20
5812;BME280;2932;52.400;9.558;2022-11-20T03:31:10;100572.81;;;3.10;61.95
5812;BME280;2932;52.400;9.558;2022-11-20T03:33:36;100568.13;;;2.78;63.18
5812;BME280;2932;52.400;9.558;2022-11-20T03:36:05;100572.38;;;3.03;63.51
5812;BME280;2932;52.400;9.558;2022-11-20T03:38:32;100565.59;;;3.33;63.22
5812;BME280;2932;52.400;9.558;2022-11-20T03:40:59;100560.94;;;3.33;63.13
5812;BME280;2932;52.400;9.558;2022-11-20T03:43:24;100563.53;;;3.11;62.59
5812;BME280;2932;52.400;9.558;2022-11-20T03:45:50;100568.69;;;3.13;62.77
5812;BME280;2932;52.400;9.558;2022-11-20T03:48:15;100574.75;;;3.10;63.40
5812;BME280;2932;52.400;9.558;2022-11-20T03:50:40;100558.31;;;2.77;64.23
5812;BME280;2932;52.400;9.558;2022-11-20T03:53:06;100557.63;;;2.66;64.50
5812;BME280;2932;52.400;9.558;2022-11-20T03:55:31;100553.81;;;2.67;64.84
5812;BME280;2932;52.400;9.558;2022-11-20T03:57:56;100553.66;;;2.59;64.89
5812;BME280;2932;52.400;9.558;2022-11-20T04:00:22;100547.78;;;2.84;64.39
5812;BME280;2932;52.400;9.558;2022-11-20T04:02:47;100546.97;;;2.84;64.33
5812;BME280;2932;52.400;9.558;2022-11-20T04:05:12;100547.94;;;2.93;64.08
5812;BME280;2932;52.400;9.558;2022-11-20T04:07:37;100546.97;;;2.84;63.65
5812;BME280;2932;52.400;9.558;2022-11-20T04:10:03;100549.66;;;2.51;64.18
5812;BME280;2932;52.400;9.558;2022-11-20T04:12:31;100544.53;;;2.45;65.04
5812;BME280;2932;52.400;9.558;2022-11-20T04:14:57;100544.75;;;2.29;65.16
5812;BME280;2932;52.400;9.558;2022-11-20T04:17:22;100545.50;;;2.35;65.97
5812;BME280;2932;52.400;9.558;2022-11-20T04:19:48;100546.00;;;2.18;65.55
5812;BME280;2932;52.400;9.558;2022-11-20T04:22:13;100550.41;;;2.38;65.55
5812;BME280;2932;52.400;9.558;2022-11-20T04:24:38;100559.34;;;2.62;65.67
5812;BME280;2932;52.400;9.558;2022-11-20T04:27:03;100552.84;;;2.77;64.94
5812;BME280;2932;52.400;9.558;2022-11-20T04:29:29;100553.94;;;2.76;64.44
5812;BME280;2932;52.400;9.558;2022-11-20T04:31:54;100553.69;;;2.91;64.68
5812;BME280;2932;52.400;9.558;2022-11-20T04:34:19;100558.50;;;3.18;64.39
5812;BME280;2932;52.400;9.558;2022-11-20T04:36:45;100561.72;;;3.20;63.80
5812;BME280;2932;52.400;9.558;2022-11-20T04:39:14;100545.34;;;2.83;63.61
5812;BME280;2932;52.400;9.558;2022-11-20T04:41:42;100556.28;;;3.01;63.98
5812;BME280;2932;52.400;9.558;2022-11-20T04:44:08;100550.31;;;2.81;64.27
5812;BME280;2932;52.400;9.558;2022-11-20T04:46:36;100554.38;;;2.83;64.51
5812;BME280;2932;52.400;9.558;2022-11-20T04:49:02;100551.03;;;2.30;65.04
5812;BME280;2932;52.400;9.558;2022-11-20T04:51:27;100555.19;;;2.65;65.55
5812;BME280;2932;52.400;9.558;2022-11-20T04:53:53;100553.72;;;2.73;65.16
5812;BME280;2932;52.400;9.558;2022-11-20T04:56:19;100571.66;;;2.97;64.97
5812;BME280;2932;52.400;9.558;2022-11-20T04:58:44;100562.34;;;3.31;64.47
5812;BME280;2932;52.400;9.558;2022-11-20T05:01:15;100559.00;;;3.53;63.92
5812;BME280;2932;52.400;9.558;2022-11-20T05:03:41;100554.13;;;3.63;63.28
5812;BME280;2932;52.400;9.558;2022-11-20T05:06:08;100557.47;;;3.28;63.39
5812;BME280;2932;52.400;9.558;2022-11-20T05:08:34;100546.63;;;2.90;64.18
5812;BME280;2932;52.400;9.558;2022-11-20T05:11:04;100538.94;;;2.55;64.67
5812;BME280;2932;52.400;9.558;2022-11-20T05:13:29;100542.09;;;2.43;65.51
5812;BME280;2932;52.400;9.558;2022-11-20T05:15:55;100541.81;;;3.01;65.86
5812;BME280;2932;52.400;9.558;2022-11-20T05:18:20;100534.78;;;3.14;64.91
5812;BME280;2932;52.400;9.558;2022-11-20T05:20:46;100533.59;;;3.01;65.14
5812;BME280;2932;52.400;9.558;2022-11-20T05:23:11;100535.00;;;3.17;64.65
5812;BME280;2932;52.400;9.558;2022-11-20T05:25:36;100535.97;;;3.08;65.35
5812;BME280;2932;52.400;9.558;2022-11-20T05:28:02;100529.50;;;2.66;65.11
5812;BME280;2932;52.400;9.558;2022-11-20T05:30:27;100526.84;;;2.61;65.75
5812;BME280;2932;52.400;9.558;2022-11-20T05:32:52;100541.41;;;2.75;65.87
5812;BME280;2932;52.400;9.558;2022-11-20T05:35:18;100521.88;;;2.25;66.40
5812;BME280;2932;52.400;9.558;2022-11-20T05:37:43;100519.97;;;1.83;67.91
5812;BME280;2932;52.400;9.558;2022-11-20T05:40:09;100523.50;;;1.84;68.12
5812;BME280;2932;52.400;9.558;2022-11-20T05:42:34;100516.31;;;2.12;68.18
5812;BME280;2932;52.400;9.558;2022-11-20T05:45:02;100528.91;;;2.31;68.14
5812;BME280;2932;52.400;9.558;2022-11-20T05:47:31;100523.41;;;2.13;68.36
5812;BME280;2932;52.400;9.558;2022-11-20T05:49:57;100516.81;;;1.95;68.43
5812;BME280;2932;52.400;9.558;2022-11-20T05:52:22;100518.25;;;2.11;68.47
5812;BME280;2932;52.400;9.558;2022-11-20T05:54:48;100519.91;;;1.88;68.08
5812;BME280;2932;52.400;9.558;2022-11-20T05:57:13;100514.97;;;1.90;68.22
5812;BME280;2932;52.400;9.558;2022-11-20T05:59:38;100514.28;;;1.56;68.82
5812;BME280;2932;52.400;9.558;2022-11-20T06:02:04;100499.81;;;1.55;69.59
5812;BME280;2932;52.400;9.558;2022-11-20T06:04:29;100496.91;;;1.71;69.04
5812;BME280;2932;52.400;9.558;2022-11-20T06:06:54;100493.13;;;1.66;69.09
5812;BME280;2932;52.400;9.558;2022-11-20T06:09:19;100488.97;;;1.21;70.09
5812;BME280;2932;52.400;9.558;2022-11-20T06:11:45;100493.22;;;1.32;70.38
5812;BME280;2932;52.400;9.558;2022-11-20T06:14:10;100493.50;;;1.60;69.60
5812;BME280;2932;52.400;9.558;2022-11-20T06:16:36;100513.81;;;1.96;69.65
5812;BME280;2932;52.400;9.558;2022-11-20T06:19:01;100519.31;;;2.53;68.67
5812;BME280;2932;52.400;9.558;2022-11-20T06:21:26;100515.16;;;2.93;67.12
5812;BME280;2932;52.400;9.558;2022-11-20T06:23:52;100493.34;;;2.37;66.67
5812;BME280;2932;52.400;9.558;2022-11-20T06:26:23;100497.78;;;2.70;66.50
5812;BME280;2932;52.400;9.558;2022-11-20T06:28:50;100490.53;;;2.42;65.79
5812;BME280;2932;52.400;9.558;2022-11-20T06:31:18;100496.47;;;2.81;65.75
5812;BME280;2932;52.400;9.558;2022-11-20T06:33:44;100500.16;;;2.39;66.55
5812;BME280;2932;52.400;9.558;2022-11-20T06:36:10;100495.06;;;2.32;67.03
5812;BME280;2932;52.400;9.558;2022-11-20T06:38:37;100494.28;;;2.46;67.59
5812;BME280;2932;52.400;9.558;2022-11-20T06:41:04;100493.56;;;2.40;67.16
5812;BME280;2932;52.400;9.558;2022-11-20T06:43:30;100501.47;;;2.60;66.76
5812;BME280;2932;52.400;9.558;2022-11-20T06:45:57;100492.31;;;2.32;66.85
5812;BME280;2932;52.400;9.558;2022-11-20T06:48:23;100489.13;;;2.63;66.85
5812;BME280;2932;52.400;9.558;2022-11-20T06:50:49;100496.38;;;2.73;66.20
5812;BME280;2932;52.400;9.558;2022-11-20T06:53:15;100490.75;;;2.64;66.16
5812;BME280;2932;52.400;9.558;2022-11-20T06:55:47;100490.53;;;2.60;66.52
5812;BME280;2932;52.400;9.558;2022-11-20T06:58:13;100510.41;;;2.98;66.29
5812;BME280;2932;52.400;9.558;2022-11-20T07:00:39;100515.75;;;3.22;65.93
5812;BME280;2932;52.400;9.558;2022-11-20T07:03:09;100500.78;;;3.33;65.75
5812;BME280;2932;52.400;9.558;2022-11-20T07:05:35;100497.72;;;3.54;65.19
5812;BME280;2932;52.400;9.558;2022-11-20T07:08:01;100486.00;;;3.34;64.77
5812;BME280;2932;52.400;9.558;2022-11-20T07:10:27;100493.66;;;3.51;64.88
5812;BME280;2932;52.400;9.558;2022-11-20T07:12:53;100494.06;;;3.58;64.59
5812;BME280;2932;52.400;9.558;2022-11-20T07:15:20;100491.34;;;3.58;64.31
5812;BME280;2932;52.400;9.558;2022-11-20T07:17:46;100489.56;;;3.35;65.00
5812;BME280;2932;52.400;9.558;2022-11-20T07:20:12;100482.34;;;3.25;65.82
5812;BME280;2932;52.400;9.558;2022-11-20T07:22:37;100486.69;;;3.26;65.21
5812;BME280;2932;52.400;9.558;2022-11-20T07:25:04;100480.06;;;2.67;66.04
5812;BME280;2932;52.400;9.558;2022-11-20T07:27:30;100477.34;;;2.81;66.72
5812;BME280;2932;52.400;9.558;2022-11-20T07:29:55;100467.22;;;2.30;66.57
5812;BME280;2932;52.400;9.558;2022-11-20T07:32:21;100487.81;;;2.23;67.22
5812;BME280;2932;52.400;9.558;2022-11-20T07:34:46;100483.44;;;1.79;68.10
5812;BME280;2932;52.400;9.558;2022-11-20T07:37:12;100483.81;;;1.73;68.71
5812;BME280;2932;52.400;9.558;2022-11-20T07:39:37;100491.63;;;2.41;68.04
5812;BME280;2932;52.400;9.558;2022-11-20T07:42:03;100494.50;;;2.12;69.01
5812;BME280;2932;52.400;9.558;2022-11-20T07:44:28;100490.41;;;2.33;69.00
5812;BME280;2932;52.400;9.558;2022-11-20T07:46:54;100492.47;;;2.60;67.87
5812;BME280;2932;52.400;9.558;2022-11-20T07:49:19;100485.50;;;2.11;67.93
5812;BME280;2932;52.400;9.558;2022-11-20T07:51:44;100496.28;;;2.21;68.11
5812;BME280;2932;52.400;9.558;2022-11-20T07:54:10;100496.06;;;2.18;68.01
5812;BME280;2932;52.400;9.558;2022-11-20T07:56:35;100500.28;;;2.48;68.75
5812;BME280;2932;52.400;9.558;2022-11-20T07:59:00;100500.38;;;2.94;67.77
5812;BME280;2932;52.400;9.558;2022-11-20T08:01:26;100491.97;;;2.90;66.86
5812;BME280;2932;52.400;9.558;2022-11-20T08:03:51;100487.22;;;3.28;66.00
5812;BME280;2932;52.400;9.558;2022-11-20T08:06:16;100487.84;;;3.39;65.64
5812;BME280;2932;52.400;9.558;2022-11-20T08:08:43;100497.97;;;3.39;64.95
5812;BME280;2932;52.400;9.558;2022-11-20T08:11:09;100492.72;;;3.69;64.60
5812;BME280;2932;52.400;9.558;2022-11-20T08:13:53;100493.06;;;3.08;65.05
5812;BME280;2932;52.400;9.558;2022-11-20T08:16:40;100493.56;;;3.24;65.33
5812;BME280;2932;52.400;9.558;2022-11-20T08:19:07;100487.97;;;3.01;64.67
5812;BME280;2932;52.400;9.558;2022-11-20T08:21:32;100489.56;;;2.70;65.82
5812;BME280;2932;52.400;9.558;2022-11-20T08:23:58;100492.00;;;2.53;66.79
5812;BME280;2932;52.400;9.558;2022-11-20T08:26:24;100498.88;;;2.50;67.38
5812;BME280;2932;52.400;9.558;2022-11-20T08:28:56;100504.09;;;2.47;67.65
5812;BME280;2932;52.400;9.558;2022-11-20T08:31:22;100490.47;;;2.47;67.82
5812;BME280;2932;52.400;9.558;2022-11-20T08:33:48;100486.75;;;2.19;67.91
5812;BME280;2932;52.400;9.558;2022-11-20T08:36:13;100492.97;;;2.62;68.06
5812;BME280;2932;52.400;9.558;2022-11-20T08:38:39;100502.94;;;2.72;66.95
5812;BME280;2932;52.400;9.558;2022-11-20T08:41:05;100489.53;;;2.38;67.27
5812;BME280;2932;52.400;9.558;2022-11-20T08:44:02;100497.41;;;3.09;66.78
5812;BME280;2932;52.400;9.558;2022-11-20T08:46:32;100499.56;;;3.26;66.37
5812;BME280;2932;52.400;9.558;2022-11-20T08:48:59;100510.56;;;3.53;65.58
5812;BME280;2932;52.400;9.558;2022-11-20T08:51:24;100498.09;;;3.47;65.57
5812;BME280;2932;52.400;9.558;2022-11-20T08:53:49;100496.47;;;3.46;65.06
5812;BME280;2932;52.400;9.558;2022-11-20T08:56:15;100498.16;;;3.28;65.99
5812;BME280;2932;52.400;9.558;2022-11-20T08:58:41;100504.81;;;3.22;66.06
5812;BME280;2932;52.400;9.558;2022-11-20T09:01:07;100510.84;;;3.06;66.26
5812;BME280;2932;52.400;9.558;2022-11-20T09:03:32;100508.41;;;3.04;67.12
5812;BME280;2932;52.400;9.558;2022-11-20T09:06:04;100502.16;;;3.50;67.16
5812;BME280;2932;52.400;9.558;2022-11-20T09:08:30;100483.50;;;3.38;65.07
5812;BME280;2932;52.400;9.558;2022-11-20T09:10:56;100475.84;;;3.21;65.28
5812;BME280;2932;52.400;9.558;2022-11-20T09:13:23;100465.16;;;3.39;65.93
5812;BME280;2932;52.400;9.558;2022-11-20T09:18:20;100470.03;;;2.95;67.89
5812;BME280;2932;52.400;9.558;2022-11-20T09:20:46;100475.47;;;3.14;67.60
5812;BME280;2932;52.400;9.558;2022-11-20T09:23:12;100476.47;;;3.18;67.08
5812;BME280;2932;52.400;9.558;2022-11-20T09:25:37;100478.53;;;3.40;66.98
5812;BME280;2932;52.400;9.558;2022-11-20T09:28:02;100495.88;;;3.49;66.29
5812;BME280;2932;52.400;9.558;2022-11-20T09:30:28;100507.53;;;3.82;66.59
5812;BME280;2932;52.400;9.558;2022-11-20T09:32:53;100507.06;;;4.44;66.38
5812;BME280;2932;52.400;9.558;2022-11-20T09:35:18;100508.19;;;4.79;65.06
5812;BME280;2932;52.400;9.558;2022-11-20T09:37:45;100508.81;;;4.98;63.47
5812;BME280;2932;52.400;9.558;2022-11-20T09:40:28;100499.00;;;5.28;62.49
5812;BME280;2932;52.400;9.558;2022-11-20T09:48:33;100500.16;;;5.58;60.42
5812;BME280;2932;52.400;9.558;2022-11-20T09:51:12;100502.00;;;5.80;58.33
5812;BME280;2932;52.400;9.558;2022-11-20T09:56:26;100498.06;;;6.03;58.42
5812;BME280;2932;52.400;9.558;2022-11-20T09:58:55;100488.75;;;4.66;58.98
5812;BME280;2932;52.400;9.558;2022-11-20T10:01:26;100490.41;;;4.54;60.79
5812;BME280;2932;52.400;9.558;2022-11-20T10:03:58;100488.44;;;4.32;60.19
5812;BME280;2932;52.400;9.558;2022-11-20T10:06:34;100483.34;;;4.39;59.85
5812;BME280;2932;52.400;9.558;2022-11-20T10:09:26;100489.25;;;4.68;59.75
5812;BME280;2932;52.400;9.558;2022-11-20T10:23:21;100469.44;;;3.45;63.01
5812;BME280;2932;52.400;9.558;2022-11-20T10:26:14;100468.16;;;3.23;62.52
5812;BME280;2932;52.400;9.558;2022-11-20T10:31:36;100457.56;;;2.89;64.05
5812;BME280;2932;52.400;9.558;2022-11-20T10:34:14;100460.00;;;2.91;64.15
5812;BME280;2932;52.400;9.558;2022-11-20T10:36:49;100458.59;;;2.93;64.51
5812;BME280;2932;52.400;9.558;2022-11-20T10:39:22;100452.88;;;2.76;64.58
5812;BME280;2932;52.400;9.558;2022-11-20T10:41:52;100458.38;;;2.90;65.43
5812;BME280;2932;52.400;9.558;2022-11-20T10:44:26;100459.97;;;2.58;65.21
5812;BME280;2932;52.400;9.558;2022-11-20T10:47:20;100452.16;;;2.52;65.85
5812;BME280;2932;52.400;9.558;2022-11-20T10:49:52;100447.13;;;2.78;65.97
5812;BME280;2932;52.400;9.558;2022-11-20T10:58:14;100457.31;;;3.05;65.00
5812;BME280;2932;52.400;9.558;2022-11-20T11:00:40;100453.50;;;3.33;65.16
5812;BME280;2932;52.400;9.558;2022-11-20T11:03:26;100450.31;;;3.58;64.45
5812;BME280;2932;52.400;9.558;2022-11-20T11:06:22;100431.94;;;3.73;64.26
5812;BME280;2932;52.400;9.558;2022-11-20T11:08:51;100433.75;;;3.36;64.77
5812;BME280;2932;52.400;9.558;2022-11-20T11:11:23;100436.09;;;3.43;64.55
5812;BME280;2932;52.400;9.558;2022-11-20T11:13:49;100432.03;;;3.26;64.70
5812;BME280;2932;52.400;9.558;2022-11-20T11:16:24;100430.00;;;3.87;65.06
5812;BME280;2932;52.400;9.558;2022-11-20T11:18:50;100435.44;;;4.14;63.55
5812;BME280;2932;52.400;9.558;2022-11-20T11:21:25;100447.34;;;4.32;63.47
5812;BME280;2932;52.400;9.558;2022-11-20T11:24:03;100433.59;;;4.23;62.54
5812;BME280;2932;52.400;9.558;2022-11-20T11:26:29;100433.88;;;4.58;62.57
5812;BME280;2932;52.400;9.558;2022-11-20T11:28:58;100431.63;;;4.82;61.24
5812;BME280;2932;52.400;9.558;2022-11-20T11:31:34;100419.97;;;4.32;62.02
5812;BME280;2932;52.400;9.558;2022-11-20T11:34:06;100425.16;;;4.78;62.65
5812;BME280;2932;52.400;9.558;2022-11-20T11:36:34;100425.03;;;4.61;61.59
5812;BME280;2932;52.400;9.558;2022-11-20T11:39:01;100427.31;;;5.21;61.62
5812;BME280;2932;52.400;9.558;2022-11-20T11:41:33;100422.00;;;5.16;61.06
5812;BME280;2932;52.400;9.558;2022-11-20T11:44:17;100421.75;;;5.03;60.89
5812;BME280;2932;52.400;9.558;2022-11-20T11:47:04;100429.94;;;5.26;61.75
5812;BME280;2932;52.400;9.558;2022-11-20T11:49:30;100423.47;;;5.61;61.08
5812;BME280;2932;52.400;9.558;2022-11-20T11:52:25;100416.16;;;4.86;61.05
5812;BME280;2932;52.400;9.558;2022-11-20T11:54:55;100411.59;;;5.35;60.73
5812;BME280;2932;52.400;9.558;2022-11-20T12:05:21;100396.31;;;5.12;60.48
5812;BME280;2932;52.400;9.558;2022-11-20T12:11:38;100404.56;;;4.89;61.75
5812;BME280;2932;52.400;9.558;2022-11-20T12:14:16;100397.00;;;4.64;62.29
5812;BME280;2932;52.400;9.558;2022-11-20T12:16:44;100402.50;;;4.95;61.80
5812;BME280;2932;52.400;9.558;2022-11-20T12:19:13;100394.28;;;4.64;62.09
5812;BME280;2932;52.400;9.558;2022-11-20T12:30:28;100375.94;;;5.35;61.33
5812;BME280;2932;52.400;9.558;2022-11-20T12:33:16;100380.25;;;5.84;60.29
5812;BME280;2932;52.400;9.558;2022-11-20T12:36:07;100379.69;;;6.39;58.91
5812;BME280;2932;52.400;9.558;2022-11-20T12:41:33;100374.44;;;7.95;56.35
5812;BME280;2932;52.400;9.558;2022-11-20T12:55:40;100353.03;;;10.21;52.03
5812;BME280;2932;52.400;9.558;2022-11-20T12:58:18;100351.94;;;9.37;52.04
5812;BME280;2932;52.400;9.558;2022-11-20T13:01:01;100353.06;;;7.92;53.99
5812;BME280;2932;52.400;9.558;2022-11-20T13:06:17;100356.38;;;7.56;56.26
5812;BME280;2932;52.400;9.558;2022-11-20T13:08:53;100354.03;;;7.37;56.47
5812;BME280;2932;52.400;9.558;2022-11-20T13:11:32;100357.53;;;6.18;58.45
5812;BME280;2932;52.400;9.558;2022-11-20T13:16:46;100357.44;;;6.87;58.38
5812;BME280;2932;52.400;9.558;2022-11-20T13:19:15;100354.91;;;7.20;57.62
5812;BME280;2932;52.400;9.558;2022-11-20T13:21:45;100366.69;;;8.09;56.21
5812;BME280;2932;52.400;9.558;2022-11-20T13:27:04;100348.50;;;12.95;47.80
5812;BME280;2932;52.400;9.558;2022-11-20T13:29:32;100338.78;;;14.66;44.08
5812;BME280;2932;52.400;9.558;2022-11-20T13:32:11;100330.47;;;14.70;43.57
5812;BME280;2932;52.400;9.558;2022-11-20T13:34:39;100333.34;;;15.18;43.45
5812;BME280;2932;52.400;9.558;2022-11-20T13:37:05;100330.59;;;15.25;42.44
5812;BME280;2932;52.400;9.558;2022-11-20T13:39:34;100323.31;;;14.69;43.29
5812;BME280;2932;52.400;9.558;2022-11-20T13:44:39;100329.34;;;12.48;46.16
5812;BME280;2932;52.400;9.558;2022-11-20T13:47:28;100330.53;;;10.94;48.22
5812;BME280;2932;52.400;9.558;2022-11-20T13:49:55;100325.03;;;9.46;50.51
5812;BME280;2932;52.400;9.558;2022-11-20T13:55:35;100331.97;;;7.16;56.40
5812;BME280;2932;52.400;9.558;2022-11-20T13:58:21;100334.16;;;7.23;56.71
5812;BME280;2932;52.400;9.558;2022-11-20T14:01:07;100334.75;;;7.08;56.75
5812;BME280;2932;52.400;9.558;2022-11-20T14:03:34;100330.75;;;7.26;56.39
5812;BME280;2932;52.400;9.558;2022-11-20T14:06:03;100322.69;;;7.21;56.30
5812;BME280;2932;52.400;9.558;2022-11-20T14:13:38;100324.13;;;7.56;56.55
5812;BME280;2932;52.400;9.558;2022-11-20T14:16:04;100325.06;;;7.31;56.54
5812;BME280;2932;52.400;9.558;2022-11-20T14:18:29;100326.22;;;8.01;55.98
5812;BME280;2932;52.400;9.558;2022-11-20T14:20:54;100315.78;;;8.48;54.88
5812;BME280;2932;52.400;9.558;2022-11-20T14:23:27;100316.16;;;9.04;53.95
5812;BME280;2932;52.400;9.558;2022-11-20T14:25:53;100305.25;;;9.44;53.17
5812;BME280;2932;52.400;9.558;2022-11-20T14:28:25;100305.59;;;9.55;52.53
5812;BME280;2932;52.400;9.558;2022-11-20T14:30:51;100301.91;;;9.39;52.77
5812;BME280;2932;52.400;9.558;2022-11-20T14:33:17;100300.84;;;9.67;52.93
5812;BME280;2932;52.400;9.558;2022-11-20T14:35:47;100296.81;;;9.65;51.91
5812;BME280;2932;52.400;9.558;2022-11-20T14:38:19;100295.13;;;9.24;52.39
5812;BME280;2932;52.400;9.558;2022-11-20T14:40:46;100286.00;;;7.88;55.01
5812;BME280;2932;52.400;9.558;2022-11-20T14:45:56;100281.53;;;6.57;57.54
5812;BME280;2932;52.400;9.558;2022-11-20T14:51:10;100285.94;;;5.54;60.56
5812;BME280;2932;52.400;9.558;2022-11-20T14:53:36;100287.03;;;5.36;61.37
5812;BME280;2932;52.400;9.558;2022-11-20T14:56:01;100284.44;;;5.31;61.92
5812;BME280;2932;52.400;9.558;2022-11-20T14:58:33;100278.59;;;5.15;61.92
5812;BME280;2932;52.400;9.558;2022-11-20T15:01:06;100283.53;;;4.96;62.26
5812;BME280;2932;52.400;9.558;2022-11-20T15:03:37;100270.63;;;4.96;62.55
5812;BME280;2932;52.400;9.558;2022-11-20T15:06:06;100273.44;;;5.14;62.36